createdAt,value
2022-08-03T00:02:19.683Z,3.60
2022-08-03T00:04:47.399Z,3.63
2022-08-03T00:07:15.036Z,4.05
2022-08-03T00:09:42.784Z,3.80
2022-08-03T00:12:10.468Z,3.88
2022-08-03T00:14:38.095Z,3.85
2022-08-03T00:17:05.823Z,4.67
2022-08-03T00:19:33.403Z,4.15
2022-08-03T00:22:01.072Z,4.20
2022-08-03T00:24:28.890Z,4.00
2022-08-03T00:26:56.449Z,3.80
2022-08-03T00:29:24.111Z,3.80
2022-08-03T00:31:57.498Z,3.77
2022-08-03T00:34:36.578Z,3.67
2022-08-03T00:37:14.845Z,3.53
2022-08-03T00:39:47.370Z,4.00
2022-08-03T00:42:15.545Z,3.58
2022-08-03T00:44:44.633Z,4.50
2022-08-03T00:47:13.066Z,3.80
2022-08-03T00:49:41.562Z,3.63
2022-08-03T00:52:10.114Z,3.50
2022-08-03T00:54:40.987Z,3.60
2022-08-03T00:57:08.858Z,3.40
2022-08-03T00:59:38.429Z,3.50
2022-08-03T01:02:06.670Z,3.40
2022-08-03T01:04:34.285Z,3.00
2022-08-03T01:07:14.021Z,3.40
2022-08-03T01:09:48.059Z,3.60
2022-08-03T01:12:45.428Z,3.13
2022-08-03T01:15:25.647Z,3.35
2022-08-03T01:17:56.966Z,3.10
2022-08-03T01:20:29.996Z,2.90
2022-08-03T01:23:16.803Z,2.92
2022-08-03T01:26:29.054Z,3.13
2022-08-03T01:29:32.419Z,3.10
2022-08-03T01:32:59.109Z,2.72
2022-08-03T01:35:09.296Z,2.70
2022-08-03T01:37:50.457Z,3.00
2022-08-03T01:40:20.716Z,2.80
2022-08-03T01:42:49.863Z,3.20
2022-08-03T01:45:19.761Z,2.70
2022-08-03T01:47:48.675Z,3.03
2022-08-03T01:50:19.324Z,2.60
2022-08-03T01:52:48.454Z,3.05
2022-08-03T01:55:20.026Z,3.20
2022-08-03T01:58:05.282Z,3.23
2022-08-03T02:00:38.881Z,2.90
2022-08-03T02:03:07.587Z,2.63
2022-08-03T02:05:36.715Z,3.10
2022-08-03T02:08:05.690Z,3.05
2022-08-03T02:10:40.333Z,2.83
2022-08-03T02:13:09.888Z,2.80
2022-08-03T02:15:38.542Z,2.60
2022-08-03T02:18:09.171Z,2.70
2022-08-03T02:20:39.131Z,2.97
2022-08-03T02:23:07.414Z,3.10
2022-08-03T02:25:43.049Z,3.50
2022-08-03T02:28:33.362Z,2.92
2022-08-03T02:31:05.994Z,3.05
2022-08-03T02:33:38.511Z,3.30
2022-08-03T02:36:08.269Z,2.90
2022-08-03T02:38:39.124Z,3.03
2022-08-03T02:41:13.706Z,3.17
2022-08-03T02:44:06.113Z,3.00
2022-08-03T02:46:34.153Z,2.83
2022-08-03T02:49:42.709Z,3.20
2022-08-03T02:51:53.587Z,3.20
2022-08-03T02:54:23.384Z,2.90
2022-08-03T02:56:52.747Z,3.20
2022-08-03T02:59:21.361Z,3.13
2022-08-03T03:01:49.679Z,3.17
2022-08-03T03:04:18.457Z,3.03
2022-08-03T03:06:50.629Z,3.05
2022-08-03T03:09:20.821Z,2.92
2022-08-03T03:11:51.196Z,2.90
2022-08-03T03:14:33.513Z,3.28
2022-08-03T03:17:02.495Z,2.70
2022-08-03T03:19:32.595Z,2.80
2022-08-03T03:22:05.120Z,3.15
2022-08-03T03:24:33.545Z,3.30
2022-08-03T03:27:02.982Z,2.90
2022-08-03T03:29:30.925Z,3.17
2022-08-03T03:32:09.154Z,3.00
2022-08-03T03:34:37.694Z,3.10
2022-08-03T03:37:05.913Z,2.95
2022-08-03T03:39:36.650Z,3.08
2022-08-03T03:42:05.284Z,2.88
2022-08-03T03:44:32.853Z,2.97
2022-08-03T03:47:00.438Z,2.88
2022-08-03T03:49:28.381Z,2.80
2022-08-03T03:51:57.195Z,3.38
2022-08-03T03:54:25.452Z,3.00
2022-08-03T03:56:56.843Z,3.00
2022-08-03T03:59:24.447Z,3.08
2022-08-03T04:01:59.038Z,3.00
2022-08-03T04:04:45.308Z,2.73
2022-08-03T04:07:31.530Z,2.80
2022-08-03T04:10:19.338Z,2.90
2022-08-03T04:12:50.288Z,3.15
2022-08-03T04:15:21.693Z,3.05
2022-08-03T04:17:50.594Z,2.70
2022-08-03T04:20:20.881Z,3.30
2022-08-03T04:22:53.141Z,2.95
2022-08-03T04:25:23.667Z,2.57
2022-08-03T04:28:28.303Z,3.40
2022-08-03T04:30:48.435Z,2.90
2022-08-03T04:33:17.771Z,3.40
2022-08-03T04:36:01.677Z,3.50
2022-08-03T04:38:33.115Z,3.40
2022-08-03T04:41:01.798Z,3.15
2022-08-03T04:43:33.010Z,3.83
2022-08-03T04:46:01.954Z,4.57
2022-08-03T04:48:29.926Z,6.97
2022-08-03T04:50:57.786Z,5.37
2022-08-03T04:53:25.509Z,3.30
2022-08-03T04:55:53.130Z,3.20
2022-08-03T04:58:20.716Z,3.05
2022-08-03T05:00:51.443Z,3.05
2022-08-03T05:03:20.406Z,3.80
2022-08-03T05:06:09.391Z,7.13
2022-08-03T05:08:46.435Z,8.03
2022-08-03T05:11:17.121Z,7.32
2022-08-03T05:13:46.206Z,5.50
2022-08-03T05:16:15.114Z,4.78
2022-08-03T05:18:43.238Z,4.55
2022-08-03T05:21:12.594Z,4.03
2022-08-03T05:23:40.561Z,3.90
2022-08-03T05:26:08.276Z,3.38
2022-08-03T05:28:35.883Z,4.35
2022-08-03T05:31:03.623Z,3.55
2022-08-03T05:33:31.477Z,3.20
2022-08-03T05:36:04.464Z,3.53
2022-08-03T05:38:34.610Z,3.40
2022-08-03T05:41:21.559Z,4.70
2022-08-03T05:43:52.355Z,4.50
2022-08-03T05:46:21.283Z,3.38
2022-08-03T05:48:49.022Z,3.47
2022-08-03T05:51:16.826Z,3.38
2022-08-03T05:53:44.774Z,3.17
2022-08-03T05:56:14.295Z,3.20
2022-08-03T05:58:44.898Z,3.60
2022-08-03T06:01:13.919Z,3.40
2022-08-03T06:03:41.685Z,3.97
2022-08-03T06:06:09.338Z,3.22
2022-08-03T06:08:37.365Z,3.40
2022-08-03T06:11:05.063Z,3.60
2022-08-03T06:13:33.207Z,3.57
2022-08-03T06:16:01.045Z,3.35
2022-08-03T06:18:28.679Z,3.40
2022-08-03T06:20:56.341Z,3.80
2022-08-03T06:23:53.355Z,4.07
2022-08-03T06:26:12.135Z,4.67
2022-08-03T06:28:52.952Z,3.00
2022-08-03T06:31:24.267Z,3.00
2022-08-03T06:34:33.671Z,2.95
2022-08-03T06:36:40.388Z,3.25
2022-08-03T06:39:08.323Z,3.20
2022-08-03T06:41:37.268Z,3.95
2022-08-03T06:44:10.354Z,3.97
2022-08-03T06:46:39.133Z,3.83
2022-08-03T06:49:07.820Z,3.93
2022-08-03T06:52:03.848Z,3.30
2022-08-03T06:54:24.620Z,5.15
2022-08-03T06:56:52.508Z,5.45
2022-08-03T07:00:08.342Z,3.50
2022-08-03T07:02:10.246Z,4.40
2022-08-03T07:04:38.190Z,3.13
2022-08-03T07:07:06.019Z,3.23
2022-08-03T07:09:33.902Z,3.85
2022-08-03T07:12:02.526Z,4.07
2022-08-03T07:14:30.192Z,3.10
2022-08-03T07:16:58.822Z,3.40
2022-08-03T07:19:26.548Z,2.95
2022-08-03T07:21:54.107Z,3.50
2022-08-03T07:24:25.876Z,3.60
2022-08-03T07:26:56.091Z,4.20
2022-08-03T07:29:23.863Z,3.40
2022-08-03T07:31:51.457Z,3.10
2022-08-03T07:34:19.093Z,2.63
2022-08-03T07:36:46.790Z,3.83
2022-08-03T07:39:15.889Z,3.75
2022-08-03T07:41:46.276Z,3.20
2022-08-03T07:44:14.122Z,4.30
2022-08-03T07:46:43.836Z,3.70
2022-08-03T07:49:12.068Z,4.30
2022-08-03T07:51:39.927Z,3.30
2022-08-03T07:54:08.045Z,4.70
2022-08-03T07:56:35.971Z,3.40
2022-08-03T07:59:03.957Z,3.37
2022-08-03T08:01:36.564Z,4.10
2022-08-03T08:04:04.389Z,3.25
2022-08-03T08:06:32.835Z,3.10
2022-08-03T08:09:02.456Z,3.38
2022-08-03T08:11:30.136Z,3.20
2022-08-03T08:13:57.702Z,2.83
2022-08-03T08:16:25.375Z,2.80
2022-08-03T08:18:53.115Z,3.47
2022-08-03T08:21:20.859Z,4.07
2022-08-03T08:23:54.938Z,3.42
2022-08-03T08:26:25.510Z,3.25
2022-08-03T08:28:53.463Z,4.43
2022-08-03T08:31:21.072Z,3.60
2022-08-03T08:34:03.553Z,3.43
2022-08-03T08:36:33.778Z,3.57
2022-08-03T08:39:01.857Z,3.78
2022-08-03T08:41:34.326Z,3.58
2022-08-03T08:44:02.643Z,3.40
2022-08-03T08:46:33.173Z,3.75
2022-08-03T08:49:04.552Z,4.28
2022-08-03T08:51:59.506Z,3.20
2022-08-03T08:54:27.537Z,4.32
2022-08-03T08:56:57.669Z,3.33
2022-08-03T08:59:26.183Z,3.40
2022-08-03T09:01:57.857Z,4.03
2022-08-03T09:04:25.902Z,3.80
2022-08-03T09:07:17.752Z,3.70
2022-08-03T09:10:12.343Z,3.40
2022-08-03T09:12:42.002Z,3.60
2022-08-03T09:15:32.747Z,4.32
2022-08-03T09:18:03.189Z,4.65
2022-08-03T09:20:34.259Z,3.30
2022-08-03T09:23:44.770Z,3.88
2022-08-03T09:26:01.855Z,4.20
2022-08-03T09:29:01.165Z,3.40
2022-08-03T09:31:34.817Z,3.00
2022-08-03T09:34:05.059Z,4.53
2022-08-03T09:36:38.331Z,3.78
2022-08-03T09:39:11.047Z,3.45
2022-08-03T09:41:45.002Z,3.83
2022-08-03T09:44:24.618Z,3.70
2022-08-03T09:46:57.343Z,3.10
2022-08-03T09:49:25.649Z,4.45
2022-08-03T09:52:37.929Z,3.37
2022-08-03T09:54:43.602Z,4.50
2022-08-03T09:57:26.026Z,4.10
2022-08-03T10:00:03.081Z,3.75
2022-08-03T10:02:41.762Z,3.55
2022-08-03T10:05:19.410Z,3.13
2022-08-03T10:07:50.710Z,3.75
2022-08-03T10:10:31.873Z,3.57
2022-08-03T10:13:02.648Z,3.60
2022-08-03T10:16:23.718Z,3.78
2022-08-03T10:18:17.998Z,3.42
2022-08-03T10:20:53.792Z,4.20
2022-08-03T10:23:23.006Z,3.58
2022-08-03T10:25:55.262Z,3.65
2022-08-03T10:28:23.322Z,3.78
2022-08-03T10:30:53.680Z,3.87
2022-08-03T10:33:51.668Z,3.67
2022-08-03T10:36:14.035Z,4.32
2022-08-03T10:38:52.844Z,4.20
2022-08-03T10:41:23.475Z,4.20
2022-08-03T10:44:10.798Z,3.80
2022-08-03T10:46:44.491Z,4.32
2022-08-03T10:49:20.698Z,4.43
2022-08-03T10:52:13.339Z,4.00
2022-08-03T10:55:11.766Z,4.17
2022-08-03T10:57:58.541Z,4.20
2022-08-03T11:00:28.505Z,4.65
2022-08-03T11:03:14.770Z,5.45
2022-08-03T11:05:49.564Z,4.93
2022-08-03T11:08:24.632Z,6.20
2022-08-03T11:11:19.542Z,4.97
2022-08-03T11:14:11.305Z,3.87
2022-08-03T11:16:48.311Z,4.30
2022-08-03T11:19:19.988Z,3.90
2022-08-03T11:21:48.645Z,4.75
2022-08-03T11:24:39.345Z,4.30
2022-08-03T11:27:16.235Z,5.35
2022-08-03T11:30:19.712Z,4.20
2022-08-03T11:32:48.393Z,5.10
2022-08-03T11:35:43.939Z,4.00
2022-08-03T11:38:12.059Z,4.83
2022-08-03T11:40:44.104Z,3.60
2022-08-03T11:43:31.387Z,3.60
2022-08-03T11:46:28.452Z,6.40
2022-08-03T11:49:09.751Z,3.60
2022-08-03T11:51:40.507Z,3.20
2022-08-03T11:54:08.325Z,3.60
2022-08-03T11:56:47.700Z,3.40
2022-08-03T11:59:21.806Z,3.33
2022-08-03T12:01:51.073Z,3.70
2022-08-03T12:04:18.727Z,2.92
2022-08-03T12:07:01.659Z,3.25
2022-08-03T12:09:29.311Z,2.95
2022-08-03T12:12:00.272Z,3.50
2022-08-03T12:14:49.326Z,3.20
2022-08-03T12:17:19.514Z,3.00
2022-08-03T12:19:47.453Z,3.00
2022-08-03T12:22:16.922Z,3.30
2022-08-03T12:24:46.905Z,4.47
2022-08-03T12:27:25.279Z,3.40
2022-08-03T12:29:59.009Z,3.25
2022-08-03T12:32:30.798Z,3.70
2022-08-03T12:35:04.581Z,3.40
2022-08-03T12:37:32.660Z,3.63
2022-08-03T12:40:09.389Z,3.67
2022-08-03T12:42:39.737Z,3.95
2022-08-03T12:45:20.720Z,4.33
2022-08-03T12:47:59.721Z,3.50
2022-08-03T12:50:35.669Z,3.60
2022-08-03T12:53:08.907Z,4.00
2022-08-03T12:55:40.029Z,3.75
2022-08-03T12:58:36.390Z,3.40
2022-08-03T13:01:09.889Z,3.63
2022-08-03T13:03:43.441Z,3.50
2022-08-03T13:06:15.394Z,3.77
2022-08-03T13:08:44.551Z,3.80
2022-08-03T13:11:52.542Z,3.47
2022-08-03T13:14:19.354Z,3.88
2022-08-03T13:16:49.640Z,3.67
2022-08-03T13:19:17.379Z,3.47
2022-08-03T13:22:01.747Z,3.92
2022-08-03T13:24:33.457Z,3.70
2022-08-03T13:27:59.416Z,4.57
2022-08-03T13:29:50.997Z,5.82
2022-08-03T13:32:18.707Z,3.80
2022-08-03T13:34:48.984Z,3.70
2022-08-03T13:37:16.750Z,3.83
2022-08-03T13:40:00.184Z,4.10
2022-08-03T13:42:32.652Z,3.90
2022-08-03T13:45:09.058Z,3.60
2022-08-03T13:47:38.039Z,4.73
2022-08-03T13:50:06.007Z,3.70
2022-08-03T13:52:35.770Z,3.85
2022-08-03T13:55:07.639Z,4.35
2022-08-03T13:58:03.079Z,3.80
2022-08-03T14:00:28.662Z,4.10
2022-08-03T14:03:05.379Z,4.00
2022-08-03T14:05:36.072Z,3.70
2022-08-03T14:08:05.934Z,4.70
2022-08-03T14:10:38.891Z,4.05
2022-08-03T14:13:06.786Z,4.20
2022-08-03T14:15:37.673Z,3.72
2022-08-03T14:18:15.923Z,3.97
2022-08-03T14:20:56.465Z,4.00
2022-08-03T14:23:25.968Z,3.80
2022-08-03T14:25:55.098Z,4.67
2022-08-03T14:28:24.116Z,4.40
2022-08-03T14:30:54.063Z,4.18
2022-08-03T14:33:22.371Z,3.50
2022-08-03T14:35:51.877Z,3.60
2022-08-03T14:38:22.513Z,3.80
2022-08-03T14:40:53.285Z,3.60
2022-08-03T14:43:21.634Z,3.53
2022-08-03T14:45:53.901Z,3.15
2022-08-03T14:50:32.950Z,3.50
2022-08-03T14:51:15.010Z,3.10
2022-08-03T14:53:45.143Z,5.15
2022-08-03T14:56:12.898Z,3.72
2022-08-03T14:58:40.658Z,3.42
2022-08-03T15:02:04.729Z,3.60
2022-08-03T15:03:56.475Z,3.80
2022-08-03T15:06:24.161Z,3.83
2022-08-03T15:09:20.862Z,3.80
2022-08-03T15:11:51.530Z,4.00
2022-08-03T15:14:28.294Z,3.67
2022-08-03T15:17:00.406Z,4.60
2022-08-03T15:20:01.316Z,3.63
2022-08-03T15:22:25.021Z,3.60
2022-08-03T15:24:59.500Z,3.47
2022-08-03T15:27:27.345Z,3.80
2022-08-03T15:30:08.133Z,3.60
2022-08-03T15:32:37.907Z,4.18
2022-08-03T15:35:05.837Z,3.80
2022-08-03T15:37:33.646Z,3.83
2022-08-03T15:40:01.459Z,4.40
2022-08-03T15:42:33.082Z,3.75
2022-08-03T15:45:02.027Z,4.00
2022-08-03T15:47:29.709Z,3.53
2022-08-03T15:49:57.527Z,4.13
2022-08-03T15:52:25.284Z,4.68
2022-08-03T15:54:52.974Z,4.57
2022-08-03T15:57:21.029Z,4.60
2022-08-03T15:59:48.938Z,4.78
2022-08-03T16:02:16.862Z,3.90
2022-08-03T16:04:44.645Z,4.10
2022-08-03T16:07:12.997Z,4.13
2022-08-03T16:09:43.725Z,5.43
2022-08-03T16:12:16.444Z,4.75
2022-08-03T16:14:53.745Z,3.40
2022-08-03T16:17:24.756Z,4.40
2022-08-03T16:19:55.231Z,4.50
2022-08-03T16:22:25.927Z,4.43
2022-08-03T16:24:54.998Z,3.92
2022-08-03T16:27:37.005Z,4.32
2022-08-03T16:30:16.117Z,3.65
2022-08-03T16:32:47.674Z,3.33
2022-08-03T16:35:19.792Z,3.80
2022-08-03T16:38:10.489Z,4.43
2022-08-03T16:40:44.451Z,5.00
2022-08-03T16:43:18.526Z,4.70
2022-08-03T16:45:47.680Z,4.90
2022-08-03T16:48:16.976Z,4.10
2022-08-03T16:50:45.350Z,4.95
2022-08-03T16:53:16.746Z,3.87
2022-08-03T16:55:51.970Z,7.03
2022-08-03T16:58:41.387Z,4.40
2022-08-03T17:01:21.988Z,4.00
2022-08-03T17:04:03.463Z,3.92
2022-08-03T17:06:38.299Z,3.88
2022-08-03T17:09:20.540Z,3.63
2022-08-03T17:11:51.312Z,5.43
2022-08-03T17:14:23.112Z,5.90
2022-08-03T17:17:02.117Z,3.80
2022-08-03T17:19:35.597Z,4.60
2022-08-03T17:22:19.099Z,4.15
2022-08-03T17:24:53.993Z,4.60
2022-08-03T17:28:50.882Z,4.65
2022-08-03T17:30:25.282Z,4.95
2022-08-03T17:32:57.469Z,4.40
2022-08-03T17:35:36.330Z,5.57
2022-08-03T17:38:10.439Z,6.95
2022-08-03T17:40:43.069Z,4.30
2022-08-03T17:44:12.933Z,4.10
2022-08-03T17:46:07.134Z,3.83
2022-08-03T17:48:37.551Z,4.75
2022-08-03T17:51:21.234Z,4.30
2022-08-03T17:54:01.034Z,4.00
2022-08-03T17:56:46.464Z,4.43
2022-08-03T17:59:51.725Z,4.30
2022-08-03T18:02:57.792Z,4.07
2022-08-03T18:06:12.102Z,4.50
2022-08-03T18:08:25.699Z,4.00
2022-08-03T18:11:14.300Z,3.88
2022-08-03T18:13:59.483Z,4.25
2022-08-03T18:16:57.758Z,3.90
2022-08-03T18:20:02.610Z,5.40
2022-08-03T18:22:20.847Z,5.10
2022-08-03T18:24:54.851Z,4.45
2022-08-03T18:27:23.664Z,4.60
2022-08-03T18:30:12.936Z,3.80
2022-08-03T18:32:40.746Z,4.55
2022-08-03T18:35:13.573Z,4.00
2022-08-03T18:37:51.807Z,5.55
2022-08-03T18:40:20.767Z,4.00
2022-08-03T18:42:52.752Z,4.03
2022-08-03T18:45:57.261Z,4.15
2022-08-03T18:48:39.502Z,4.13
2022-08-03T18:51:24.136Z,4.10
2022-08-03T18:54:06.260Z,3.58
2022-08-03T18:56:49.506Z,4.55
2022-08-03T18:59:30.179Z,3.53
2022-08-03T19:02:33.082Z,3.40
2022-08-03T19:05:08.090Z,3.40
2022-08-03T19:07:37.119Z,3.47
2022-08-03T19:10:15.876Z,4.00
2022-08-03T19:12:54.402Z,3.70
2022-08-03T19:15:36.339Z,3.78
2022-08-03T19:18:12.091Z,3.60
2022-08-03T19:20:47.003Z,3.87
2022-08-03T19:23:16.534Z,3.73
2022-08-03T19:25:45.014Z,3.42
2022-08-03T19:28:29.686Z,3.55
2022-08-03T19:31:02.555Z,3.70
2022-08-03T19:33:56.658Z,3.88
2022-08-03T19:39:11.035Z,3.72
2022-08-03T19:41:42.722Z,3.87
2022-08-03T19:44:20.120Z,3.90
2022-08-03T19:47:01.736Z,3.83
2022-08-03T19:49:57.685Z,3.85
2022-08-03T19:52:31.631Z,4.15
2022-08-03T19:55:00.988Z,3.83
2022-08-03T19:57:32.135Z,3.92
2022-08-03T20:00:03.418Z,3.70
2022-08-03T20:02:33.913Z,4.07
2022-08-03T20:05:01.878Z,3.80
2022-08-03T20:07:33.797Z,3.95
2022-08-03T20:10:05.093Z,3.58
2022-08-03T20:12:41.898Z,3.72
2022-08-03T20:15:10.772Z,4.07
2022-08-03T20:20:31.874Z,4.43
2022-08-03T20:23:11.507Z,4.55
2022-08-03T20:25:58.562Z,4.90
2022-08-03T20:28:50.301Z,4.65
2022-08-03T20:31:21.614Z,4.93
2022-08-03T20:33:52.568Z,5.15
2022-08-03T20:36:20.396Z,4.88
2022-08-03T20:38:48.714Z,5.40
2022-08-03T20:41:17.845Z,5.30
2022-08-03T20:43:46.595Z,4.57
2022-08-03T20:46:31.113Z,4.85
2022-08-03T20:49:05.162Z,4.60
2022-08-03T20:51:49.793Z,4.50
2022-08-03T20:54:29.510Z,4.43
2022-08-03T20:57:03.551Z,4.37
2022-08-03T20:59:46.931Z,4.50
2022-08-03T21:02:29.796Z,5.10
2022-08-03T21:05:08.442Z,5.28
2022-08-03T21:08:04.238Z,4.70
2022-08-03T21:10:31.832Z,5.20
2022-08-03T21:13:02.595Z,4.03
2022-08-03T21:13:10.601Z,4.43
2022-08-03T21:16:12.564Z,4.77
2022-08-03T21:19:04.260Z,4.90
2022-08-03T21:21:33.503Z,4.90
2022-08-03T21:24:03.962Z,4.70
2022-08-03T21:26:37.958Z,4.70
2022-08-03T21:29:09.492Z,4.88
2022-08-03T21:31:55.175Z,4.57
2022-08-03T21:34:36.730Z,4.63
2022-08-03T21:37:04.529Z,5.33
2022-08-03T21:39:51.106Z,4.37
2022-08-03T21:42:24.565Z,4.30
2022-08-03T21:44:55.867Z,3.78
2022-08-03T21:47:24.585Z,4.88
2022-08-03T21:50:08.559Z,4.40
2022-08-03T21:52:48.498Z,4.40
2022-08-03T21:55:30.920Z,4.75
2022-08-03T21:58:04.195Z,4.68
2022-08-03T22:00:59.532Z,3.80
2022-08-03T22:03:31.762Z,4.70
2022-08-03T22:06:23.496Z,4.78
2022-08-03T22:09:05.374Z,4.28
2022-08-03T22:11:49.747Z,4.95
2022-08-03T22:14:22.482Z,4.88
2022-08-03T22:16:53.249Z,5.40
2022-08-03T22:19:23.123Z,6.68
2022-08-03T22:21:53.451Z,6.90
2022-08-03T22:24:26.002Z,7.57
2022-08-03T22:27:12.494Z,7.77
2022-08-03T22:29:45.274Z,8.50
2022-08-03T22:32:13.255Z,9.25
2022-08-03T22:34:43.251Z,8.27
2022-08-03T22:37:12.439Z,8.50
2022-08-03T22:39:40.637Z,8.27
2022-08-03T22:42:09.265Z,8.32
2022-08-03T22:44:37.334Z,7.73
2022-08-03T22:47:06.324Z,7.70
2022-08-03T22:49:35.748Z,8.00
2022-08-03T22:52:03.669Z,7.35
2022-08-03T22:54:33.964Z,7.10
2022-08-03T22:57:05.739Z,6.80
2022-08-03T22:59:40.807Z,6.55
2022-08-03T23:02:21.233Z,6.53
2022-08-03T23:04:52.184Z,7.20
2022-08-03T23:07:23.919Z,7.00
2022-08-03T23:09:52.117Z,9.15
2022-08-03T23:12:20.474Z,6.88
2022-08-03T23:15:01.577Z,6.65
2022-08-03T23:17:31.876Z,6.95
2022-08-03T23:20:06.806Z,6.05
2022-08-03T23:22:38.301Z,6.68
2022-08-03T23:25:14.121Z,6.60
2022-08-03T23:27:43.784Z,6.50
2022-08-03T23:30:12.825Z,6.38
2022-08-03T23:32:43.258Z,6.20
2022-08-03T23:36:29.053Z,6.50
2022-08-03T23:38:27.554Z,6.40
2022-08-03T23:41:01.140Z,6.30
2022-08-03T23:43:44.746Z,5.68
2022-08-03T23:46:22.512Z,5.30
2022-08-03T23:48:51.397Z,5.33
2022-08-03T23:51:35.609Z,5.80
2022-08-03T23:54:26.861Z,5.75
2022-08-03T23:57:15.587Z,5.60
